Bayfield, Wisconsin
Current Conditions -  °F | °C
As of 12:53 PM on Friday 28 Nov 2014 (Local Time) from KASX Reporting Station
Overcast Overcast  
Wind Chill: 14°   Ceiling: 5500
Heat Index: 14°   Visibility: 10mi
Dew Point: 10°   Wind: 3mph
Humidity: 84%   Direction: 40°NE
Pressure: 29.98"   Gusts: NA
Location:  46.81°N, 90.82°W
Report Text: KASX 281853Z AUTO 04003KT 10SM FEW036 BKN055 OVC070 M10/M12 A2998 RMK AO2 SLP173 T11001122
Loading
Personal Weather Stations






























Interactive Weather Map New forecast layout! Learn more

10-Day Weather Forecast

Advertisements
Track Severe Weather on mobile